Latest Weather Observations for Emerald

IDQ60801

Issued at 12:32 pm EST Friday 6 March 2015 (issued every 30 minutes, with the page automatically refreshed every 10 minutes)

About weather observations | Map of weather stations | Latest weather observations for QLD | Other Formats
Station Details ID: 035264 Name: EMERALD AIRPORT Lat: -23.57 Lon: 148.18 Height: 189.4 m
Data from the previous 72 hours. | See also: Recent months at Emerald
Date/Time
EST
Temp
°C
App
Temp
°C
Dew
Point
Rel
Hum
%
Delta-T
°C
Wind Press
QNH
hPa
Press
MSL
hPa
Rain
since 9 am
mm
Dir
 
Spd
km/h
Gust
km/h
Spd
kts
Gust
kts
06/12:30pm 34.5 30.5 6.7 18 15.4 SE 17 32 9 17 1007.1 - 0.0
06/12:00pm 33.7 30.0 6.1 18 15.1 SE 15 30 8 16 1007.6 1006.6 0.0
06/11:30am 33.6 29.1 6.0 18 15.0 ESE 19 32 10 17 1008.1 - 0.0
06/11:00am 32.4 29.0 5.8 19 14.3 SSE 13 41 7 22 1008.6 - 0.0
06/10:30am 32.1 26.7 6.3 20 14.0 SE 24 33 13 18 1008.9 - 0.0
06/10:00am 31.9 25.9 5.4 19 14.1 SE 26 33 14 18 1009.1 - 0.0
06/09:30am 30.5 24.2 5.7 21 13.2 SE 28 37 15 20 1009.2 - 0.0
06/09:00am 29.7 22.5 5.1 21 12.9 SE 32 43 17 23 1009.2 1008.1 0.0
06/08:30am 28.9 21.7 5.7 23 12.2 SE 33 44 18 24 1009.0 - 0.0
06/08:00am 28.0 21.5 6.7 26 11.4 SSE 30 39 16 21 1008.9 - 0.0
06/07:30am 26.9 20.1 6.9 28 10.6 SSE 32 43 17 23 1008.6 - 0.0
06/07:00am 26.2 20.8 8.2 32 9.8 SSE 26 37 14 20 1008.5 - 0.0
06/06:30am 25.7 21.3 9.1 35 9.1 SSE 22 30 12 16 1008.0 - 0.0
06/06:00am 26.2 21.6 9.5 35 9.3 SSE 24 30 13 16 1007.7 1006.7 0.0
06/05:30am 26.5 23.2 11.0 38 8.8 SSE 19 24 10 13 1007.3 - 0.0
06/05:00am 26.9 24.6 12.9 42 8.2 SSE 17 20 9 11 1006.8 - 0.0
06/04:30am 26.9 25.3 15.0 48 7.2 SSE 17 20 9 11 1006.5 - 0.0
06/04:00am 27.9 25.7 14.9 45 7.9 SE 20 30 11 16 1006.2 - 0.0
06/03:30am 28.6 25.4 15.2 44 8.2 SE 26 33 14 18 1006.1 - 0.0
06/03:00am 29.0 24.9 12.8 36 9.6 SSE 26 35 14 19 1005.9 1004.8 0.0
06/02:30am 29.1 25.7 12.5 36 9.8 SSE 22 32 12 17 1006.2 - 0.0
06/02:00am 28.3 27.3 17.5 52 6.9 S 19 22 10 12 1006.4 - 0.0
06/01:30am 28.3 28.9 17.8 53 6.7 SSE 11 15 6 8 1006.5 - 0.0
06/01:00am 28.8 31.2 18.0 52 6.9 SE 2 9 1 5 1006.8 - 0.0
06/12:30am 29.3 29.8 17.5 49 7.5 ESE 11 19 6 10 1006.9 - 0.0
06/12:00am 30.3 28.5 17.0 44 8.5 SSE 22 32 12 17 1007.3 1006.3 0.0
 
Date/Time
EST
Temp
°C
App
Temp
°C
Dew
Point
Rel
Hum
%
Delta-T
°C
Wind Press
QNH
hPa
Press
MSL
hPa
Rain
since 9 am
mm
Dir
 
Spd
km/h
Gust
km/h
Spd
kts
Gust
kts
05/11:30pm 30.3 30.7 16.3 42 8.8 N 9 13 5 7 1006.4 - 0.0
05/11:00pm 30.4 31.5 17.1 44 8.5 N 7 11 4 6 1006.5 - 0.0
05/10:30pm 31.5 32.9 16.3 40 9.6 N 4 7 2 4 1006.3 - 0.0
05/10:00pm 31.3 32.2 16.5 41 9.4 N 7 7 4 4 1006.3 - 0.0
05/09:30pm 31.5 33.9 17.0 41 9.2 CALM 0 0 0 0 1006.3 - 0.0
05/09:00pm 31.3 33.9 17.6 44 8.8 CALM 0 0 0 0 1006.2 1005.1 0.0
05/08:30pm 31.7 32.8 17.2 42 9.3 ENE 7 9 4 5 1005.9 - 0.0
05/08:00pm 33.0 33.4 16.4 37 10.5 NE 9 11 5 6 1005.8 - 0.0
05/07:30pm 33.9 33.7 15.8 33 11.4 NE 11 13 6 7 1005.7 - 0.0
05/07:00pm 34.0 34.6 16.8 35 11.0 ENE 9 15 5 8 1005.5 - 0.0
05/06:30pm 36.0 36.9 16.2 31 12.7 E 6 9 3 5 1005.3 - 0.0
05/06:00pm 37.5 37.4 15.9 28 13.9 SSW 11 13 6 7 1005.2 1004.1 0.0
05/05:30pm 37.9 38.6 15.7 27 14.2 SSW 6 13 3 7 1005.4 - 0.0
05/05:00pm 37.7 37.6 16.1 28 13.9 S 11 19 6 10 1005.5 - 0.0
05/04:30pm 38.3 36.9 16.6 28 14.1 SW 19 24 10 13 1005.5 - 0.0
05/04:00pm 38.6 39.6 16.8 27 14.2 SE 7 20 4 11 1005.6 - 0.0
05/03:30pm 38.2 37.5 15.3 25 14.6 S 13 20 7 11 1006.0 - 0.0
05/03:00pm 37.8 36.8 15.6 27 14.2 SSW 15 24 8 13 1006.3 1005.2 0.0
05/02:30pm 37.8 37.6 16.7 29 13.7 WSW 13 24 7 13 1006.7 - 0.0
05/02:00pm 37.1 38.2 16.6 29 13.2 NE 6 11 3 6 1007.2 - 0.0
05/01:30pm 36.3 36.8 17.4 32 12.3 NW 11 19 6 10 1007.8 - 0.0
05/01:00pm 35.8 36.3 17.5 34 11.9 NNE 11 20 6 11 1008.7 - 0.0
05/12:30pm 34.9 35.7 17.2 35 11.4 NNE 9 13 5 7 1009.3 - 0.0
05/12:00pm 34.3 35.6 17.5 36 10.9 W 7 13 4 7 1010.0 1008.9 0.0
05/11:30am 33.5 33.9 17.2 37 10.5 SW 11 17 6 9 1010.6 - 0.0
05/11:00am 32.2 33.6 17.7 42 9.4 N 7 13 4 7 1011.2 - 0.0
05/10:30am 31.7 33.8 19.0 47 8.3 WNW 6 9 3 5 1011.6 - 0.0
05/10:00am 30.8 32.6 19.5 51 7.4 NW 9 13 5 7 1012.0 - 0.0
05/09:30am 29.4 31.1 19.4 55 6.6 N 9 15 5 8 1012.1 - 0.0
05/09:00am 28.3 30.7 20.1 61 5.4 NW 7 13 4 7 1012.0 1011.0 0.0
05/08:30am 27.1 29.3 19.7 64 4.8 NW 7 11 4 6 1012.0 - 0.0
05/08:00am 26.2 28.6 20.1 69 4.0 NNW 7 13 4 7 1012.0 - 0.0
05/07:30am 24.9 28.4 19.5 72 3.5 CALM 0 9 0 5 1011.8 - 0.0
05/07:00am 24.1 28.0 20.4 80 2.4 CALM 0 0 0 0 1011.6 - 0.0
05/06:30am 22.9 26.9 20.6 87 1.5 CALM 0 0 0 0 1011.2 - 0.0
05/06:00am 22.5 26.3 20.2 87 1.5 CALM 0 0 0 0 1011.0 1009.9 0.0
05/05:30am 22.7 26.1 20.2 86 1.6 NE 2 6 1 3 1010.7 - 0.0
05/05:00am 23.0 26.5 20.3 85 1.8 N 2 7 1 4 1010.6 - 0.0
05/04:30am 23.2 26.0 20.5 85 1.8 N 6 7 3 4 1010.5 - 0.0
05/04:00am 23.1 25.5 20.1 83 1.9 NNE 7 9 4 5 1010.4 - 0.0
05/03:30am 23.8 26.3 20.3 81 2.3 N 7 9 4 5 1010.5 - 0.0
05/03:00am 24.2 26.4 20.3 79 2.6 NNE 9 13 5 7 1010.7 1009.6 0.0
05/02:30am 24.4 25.7 20.1 77 2.8 NNE 13 17 7 9 1010.9 - 0.0
05/02:00am 24.8 26.1 20.1 75 3.1 NNE 13 19 7 10 1011.2 - 0.0
05/01:30am 25.4 26.7 20.2 73 3.4 NNE 13 20 7 11 1011.3 - 0.0
05/01:00am 25.3 26.6 19.2 69 3.9 NNE 11 17 6 9 1011.4 - 0.0
05/12:30am 25.6 26.5 18.3 64 4.7 NNE 11 13 6 7 1011.5 - 0.0
05/12:00am 25.7 26.3 16.8 58 5.6 NNE 9 11 5 6 1011.8 1010.8 0.0
 
Date/Time
EST
Temp
°C
App
Temp
°C
Dew
Point
Rel
Hum
%
Delta-T
°C
Wind Press
QNH
hPa
Press
MSL
hPa
Rain
since 9 am
mm
Dir
 
Spd
km/h
Gust
km/h
Spd
kts
Gust
kts
04/11:30pm 26.2 26.6 16.4 54 6.1 NE 9 11 5 6 1012.0 - 0.0
04/11:00pm 26.9 27.5 15.9 51 6.8 ENE 7 9 4 5 1012.1 - 0.0
04/10:30pm 27.3 27.2 16.0 50 7.0 NE 11 15 6 8 1012.0 - 0.0
04/10:00pm 26.2 26.0 15.6 52 6.5 ENE 11 13 6 7 1011.9 - 0.0
04/09:30pm 26.5 26.1 15.2 49 6.9 E 11 13 6 7 1012.0 - 0.0
04/09:00pm 27.8 28.0 14.8 45 7.9 ENE 7 9 4 5 1011.7 1010.7 0.0
04/08:30pm 28.6 28.1 14.8 43 8.4 ENE 11 13 6 7 1011.4 - 0.0
04/08:00pm 28.9 29.0 15.4 44 8.3 ENE 9 11 5 6 1010.9 - 0.0
04/07:30pm 30.1 30.1 14.2 38 9.7 ENE 7 7 4 4 1010.7 - 0.0
04/07:00pm 31.8 31.1 13.1 32 11.3 NE 9 13 5 7 1010.4 - 0.0
04/06:30pm 32.7 31.9 12.9 30 11.9 NE 9 13 5 7 1010.0 - 0.0
04/06:00pm 34.2 33.8 13.1 28 12.9 ENE 7 11 4 6 1009.9 1008.8 0.0
04/05:30pm 34.7 32.8 13.0 27 13.2 E 15 19 8 10 1009.8 - 0.0
04/05:00pm 34.7 32.6 12.4 26 13.5 ESE 15 20 8 11 1009.7 - 0.0
04/04:30pm 35.0 32.2 12.6 26 13.6 ESE 19 26 10 14 1009.8 - 0.0
04/04:00pm 35.0 33.2 13.2 27 13.3 ESE 15 26 8 14 1009.9 - 0.0
04/03:30pm 35.1 32.9 13.3 27 13.3 E 17 28 9 15 1010.1 - 0.0
04/03:00pm 34.6 32.8 13.4 28 13.0 NE 15 24 8 13 1010.4 1009.3 0.0
04/02:30pm 34.3 33.4 13.7 29 12.6 ENE 11 20 6 11 1010.6 - 0.0
04/02:00pm 33.7 32.2 14.2 30 12.0 E 15 24 8 13 1011.1 - 0.0
04/01:30pm 33.9 32.3 14.9 32 11.9 E 17 28 9 15 1011.4 - 0.0
04/01:00pm 32.7 30.5 14.3 32 11.3 E 19 30 10 16 1012.1 - 0.0
04/12:30pm 31.7 30.1 13.9 34 10.9 ESE 15 28 8 15 1012.6 - 0.0
04/12:00pm 31.5 31.0 15.0 36 10.2 ESE 11 24 6 13 1013.1 1012.1 0.0
04/11:30am 31.0 29.4 15.0 38 9.9 ENE 17 20 9 11 1013.8 - 0.0
04/11:00am 30.1 27.3 14.2 38 9.7 ENE 22 26 12 14 1014.2 - 0.0
04/10:30am 29.7 28.4 14.7 40 9.2 ESE 15 26 8 14 1014.6 - 0.0
04/10:00am 29.0 27.1 15.2 43 8.5 ENE 19 28 10 15 1014.7 - 0.0
04/09:30am 28.4 27.1 16.7 49 7.4 NE 19 24 10 13 1014.8 - 0.0
04/09:00am 27.4 26.7 16.4 51 6.9 E 15 20 8 11 1014.6 1013.5 0.0
04/08:30am 26.4 25.5 18.3 61 5.2 E 20 28 11 15 1014.5 - 0.0
04/08:00am 25.0 26.1 19.6 72 3.5 E 13 17 7 9 1014.5 - 0.0
04/07:30am 23.6 25.1 19.7 79 2.5 E 11 17 6 9 1014.5 - 0.0
04/07:00am 22.7 25.2 19.1 80 2.3 ENE 4 7 2 4 1014.0 - 0.0
04/06:30am 21.1 23.5 18.9 87 1.4 E 4 6 2 3 1013.6 - 0.0
04/06:23am 21.0 23.1 18.9 88 1.3 ENE 6 6 3 3 1013.6 - 0.0
04/06:04am 20.1 21.6 17.7 86 1.5 ENE 6 7 3 4 1013.2 - 0.0
04/06:00am 20.4 21.7 17.6 84 1.7 ENE 7 9 4 5 1013.2 1012.2 0.0
04/05:30am 21.1 22.8 18.5 85 1.6 NE 7 9 4 5 1013.0 - 0.0
04/05:00am 21.4 23.1 18.6 84 1.8 ENE 7 9 4 5 1012.7 - 0.0
04/04:30am 21.3 23.6 18.5 84 1.8 E 4 7 2 4 1012.6 - 0.0
04/04:00am 21.5 23.2 18.5 83 1.9 E 7 7 4 4 1012.5 - 0.0
04/03:30am 21.9 23.3 17.9 78 2.5 ENE 7 11 4 6 1012.5 - 0.0
04/03:00am 22.1 23.5 17.7 76 2.7 NE 7 11 4 6 1012.7 1011.7 0.0
04/02:30am 23.1 24.1 17.8 72 3.3 ENE 9 13 5 7 1012.9 - 0.0
04/02:00am 23.8 24.1 17.1 66 4.2 NE 11 13 6 7 1013.2 - 0.0
04/01:30am 24.6 24.1 16.8 62 4.8 NE 15 20 8 11 1013.5 - 0.0
04/01:00am 25.1 24.0 17.3 62 4.9 ENE 19 28 10 15 1013.8 - 0.0
04/12:30am 25.4 24.7 18.3 65 4.5 NE 19 26 10 14 1014.0 - 0.0
04/12:00am 25.9 25.5 18.1 62 5.0 ENE 17 22 9 12 1014.1 1013.0 0.0
 
Date/Time
EST
Temp
°C
App
Temp
°C
Dew
Point
Rel
Hum
%
Delta-T
°C
Wind Press
QNH
hPa
Press
MSL
hPa
Rain
since 9 am
mm
Dir
 
Spd
km/h
Gust
km/h
Spd
kts
Gust
kts
03/11:30pm 26.3 25.8 16.8 56 5.9 ENE 15 19 8 10 1014.0 - 0.0
03/11:00pm 25.9 25.2 16.5 56 5.8 ENE 15 19 8 10 1013.6 - 0.0
03/10:30pm 25.3 25.0 16.4 57 5.5 E 13 15 7 8 1013.8 - 0.0
03/10:00pm 25.8 26.1 16.1 55 6.0 E 9 11 5 6 1013.6 - 0.0
03/09:30pm 27.2 26.0 16.2 51 6.8 E 17 19 9 10 1013.4 - 0.0
03/09:00pm 27.4 26.6 16.1 50 7.0 E 15 17 8 9 1013.0 1012.0 0.0
03/08:30pm 28.3 27.8 15.9 47 7.7 E 13 17 7 9 1012.6 - 0.0
03/08:00pm 29.9 28.0 15.2 41 9.1 ENE 19 26 10 14 1012.1 - 0.0
03/07:30pm 30.8 27.8 14.8 37 9.9 ENE 24 33 13 18 1011.8 - 0.0
03/07:00pm 31.8 28.5 14.0 34 10.9 ENE 24 30 13 16 1011.3 - 0.0
03/06:30pm 32.2 29.7 13.4 32 11.4 E 19 22 10 12 1010.8 - 0.0
03/06:00pm 34.0 31.1 14.0 30 12.3 E 22 32 12 17 1010.5 1009.4 0.0
03/05:30pm 34.6 33.0 14.0 29 12.7 ESE 15 20 8 11 1010.3 - 0.0
03/05:00pm 35.1 33.7 14.4 29 12.9 E 15 22 8 12 1010.1 - 0.0
03/04:30pm 35.6 33.4 14.3 28 13.3 E 19 26 10 14 1010.1 - 0.0
03/04:00pm 35.0 33.7 13.8 28 13.1 E 13 22 7 12 1010.2 - 0.0
03/03:30pm 35.1 32.5 13.8 27 13.1 E 20 30 11 16 1010.4 - 0.0
03/03:00pm 35.1 32.7 13.8 27 13.1 E 19 28 10 15 1010.7 1009.6 0.0
03/02:30pm 34.9 31.7 13.1 27 13.3 SE 22 35 12 19 1011.0 - 0.0
03/02:00pm 34.4 33.1 13.8 29 12.7 E 13 30 7 16 1011.4 - 0.0
03/01:30pm 34.9 33.4 14.2 28 12.8 E 15 30 8 16 1011.8 - 0.0
03/01:00pm 33.7 31.8 14.2 30 12.0 E 17 24 9 13 1012.4 - 0.0

Other Formats:

Comma delimited format used in spreadsheet applications
http://www.bom.gov.au/fwo/IDQ60801/IDQ60801.94363.axf

JavaScript Object Notation format (JSON) in row-major order
http://www.bom.gov.au/fwo/IDQ60801/IDQ60801.94363.json